Kasimov, Russia
Current Conditions -  °F | °C
As of 2:00 AM on Thursday 27 Nov 2014 (Local Time) from UWGG Reporting Station
Freezing Drizzle Freezing Drizzle  
Wind Chill: 15°   Ceiling: 500
Heat Index: 21°   Visibility: 2mi
Dew Point: 19°   Wind: 4mph
Humidity: 93%   Direction: NA
Pressure: 30.45"   Gusts: NA
Location:  54.94°N, 41.39°E
Report Text: UWGG 262300Z VRB02MPS 3300 -FZDZ BR OVC005 M06/M07 Q1031 TEMPOFZDZ BR OVC005 18390038 RMK QBB150 QFE766
Loading
Personal Weather Stations






























Interactive Weather Map New forecast layout! Learn more

10-Day Weather Forecast

Advertisements
Track Severe Weather on mobile